sensor_id;sensor_type;location;lat;lon;timestamp;P1;durP1;ratioP1;P2;durP2;ratioP2
52041;SDS011;38052;45.944;13.624;2024-01-30T00:00:40;13.45;;;5.20;;
52041;SDS011;38052;45.944;13.624;2024-01-30T00:03:06;9.68;;;5.22;;
52041;SDS011;38052;45.944;13.624;2024-01-30T00:05:33;7.43;;;4.93;;
52041;SDS011;38052;45.944;13.624;2024-01-30T00:07:59;11.07;;;5.57;;
52041;SDS011;38052;45.944;13.624;2024-01-30T00:10:25;9.13;;;6.18;;
52041;SDS011;38052;45.944;13.624;2024-01-30T00:12:52;10.25;;;5.72;;
52041;SDS011;38052;45.944;13.624;2024-01-30T00:15:18;8.23;;;4.88;;
52041;SDS011;38052;45.944;13.624;2024-01-30T00:17:44;8.70;;;5.03;;
52041;SDS011;38052;45.944;13.624;2024-01-30T00:20:11;7.82;;;4.72;;
52041;SDS011;38052;45.944;13.624;2024-01-30T00:22:37;8.13;;;4.03;;
52041;SDS011;38052;45.944;13.624;2024-01-30T00:25:04;5.65;;;3.42;;
52041;SDS011;38052;45.944;13.624;2024-01-30T00:27:30;6.95;;;3.40;;
52041;SDS011;38052;45.944;13.624;2024-01-30T00:29:57;6.55;;;3.65;;
52041;SDS011;38052;45.944;13.624;2024-01-30T00:32:23;7.70;;;4.00;;
52041;SDS011;38052;45.944;13.624;2024-01-30T00:34:49;8.20;;;4.65;;
52041;SDS011;38052;45.944;13.624;2024-01-30T00:37:16;6.47;;;3.72;;
52041;SDS011;38052;45.944;13.624;2024-01-30T00:39:42;8.13;;;3.70;;
52041;SDS011;38052;45.944;13.624;2024-01-30T00:42:09;7.45;;;4.20;;
52041;SDS011;38052;45.944;13.624;2024-01-30T00:44:37;7.72;;;4.50;;
52041;SDS011;38052;45.944;13.624;2024-01-30T00:47:03;9.55;;;4.57;;
52041;SDS011;38052;45.944;13.624;2024-01-30T00:49:30;11.10;;;4.38;;
52041;SDS011;38052;45.944;13.624;2024-01-30T00:51:56;8.43;;;4.82;;
52041;SDS011;38052;45.944;13.624;2024-01-30T00:54:23;10.05;;;4.75;;
52041;SDS011;38052;45.944;13.624;2024-01-30T00:56:49;5.20;;;3.33;;
52041;SDS011;38052;45.944;13.624;2024-01-30T00:59:17;9.05;;;4.45;;
52041;SDS011;38052;45.944;13.624;2024-01-30T01:01:43;8.45;;;4.25;;
52041;SDS011;38052;45.944;13.624;2024-01-30T01:04:10;6.97;;;4.18;;
52041;SDS011;38052;45.944;13.624;2024-01-30T01:06:36;10.57;;;4.45;;
52041;SDS011;38052;45.944;13.624;2024-01-30T01:09:02;8.50;;;4.07;;
52041;SDS011;38052;45.944;13.624;2024-01-30T01:11:29;6.90;;;4.15;;
52041;SDS011;38052;45.944;13.624;2024-01-30T01:13:56;9.07;;;4.32;;
52041;SDS011;38052;45.944;13.624;2024-01-30T01:16:23;8.27;;;4.13;;
52041;SDS011;38052;45.944;13.624;2024-01-30T01:18:49;8.70;;;4.90;;
52041;SDS011;38052;45.944;13.624;2024-01-30T01:21:16;6.38;;;3.53;;
52041;SDS011;38052;45.944;13.624;2024-01-30T01:23:42;9.40;;;4.40;;
52041;SDS011;38052;45.944;13.624;2024-01-30T01:26:09;6.63;;;3.75;;
52041;SDS011;38052;45.944;13.624;2024-01-30T01:28:35;7.18;;;3.40;;
52041;SDS011;38052;45.944;13.624;2024-01-30T01:31:02;7.30;;;3.85;;
52041;SDS011;38052;45.944;13.624;2024-01-30T01:33:31;6.53;;;3.33;;
52041;SDS011;38052;45.944;13.624;2024-01-30T01:35:58;6.43;;;3.88;;
52041;SDS011;38052;45.944;13.624;2024-01-30T01:38:26;6.72;;;3.58;;
52041;SDS011;38052;45.944;13.624;2024-01-30T01:40:53;8.82;;;4.13;;
52041;SDS011;38052;45.944;13.624;2024-01-30T01:43:19;6.97;;;3.38;;
52041;SDS011;38052;45.944;13.624;2024-01-30T01:45:46;7.18;;;4.10;;
52041;SDS011;38052;45.944;13.624;2024-01-30T01:48:12;9.30;;;3.47;;
52041;SDS011;38052;45.944;13.624;2024-01-30T01:50:39;6.20;;;3.38;;
52041;SDS011;38052;45.944;13.624;2024-01-30T01:53:06;8.40;;;3.90;;
52041;SDS011;38052;45.944;13.624;2024-01-30T01:55:33;7.53;;;3.45;;
52041;SDS011;38052;45.944;13.624;2024-01-30T01:58:01;6.75;;;3.92;;
52041;SDS011;38052;45.944;13.624;2024-01-30T02:00:27;9.68;;;4.05;;
52041;SDS011;38052;45.944;13.624;2024-01-30T02:02:54;9.05;;;4.47;;
52041;SDS011;38052;45.944;13.624;2024-01-30T02:05:21;12.00;;;4.45;;
52041;SDS011;38052;45.944;13.624;2024-01-30T02:07:47;9.05;;;4.05;;
52041;SDS011;38052;45.944;13.624;2024-01-30T02:10:13;8.98;;;4.18;;
52041;SDS011;38052;45.944;13.624;2024-01-30T02:12:40;9.98;;;3.92;;
52041;SDS011;38052;45.944;13.624;2024-01-30T02:15:06;8.88;;;4.95;;
52041;SDS011;38052;45.944;13.624;2024-01-30T02:17:33;10.85;;;5.07;;
52041;SDS011;38052;45.944;13.624;2024-01-30T02:19:59;8.05;;;4.15;;
52041;SDS011;38052;45.944;13.624;2024-01-30T02:22:26;9.48;;;3.75;;
52041;SDS011;38052;45.944;13.624;2024-01-30T02:24:53;7.13;;;3.85;;
52041;SDS011;38052;45.944;13.624;2024-01-30T02:27:20;9.13;;;4.47;;
52041;SDS011;38052;45.944;13.624;2024-01-30T02:29:46;10.70;;;4.68;;
52041;SDS011;38052;45.944;13.624;2024-01-30T02:32:13;8.65;;;4.35;;
52041;SDS011;38052;45.944;13.624;2024-01-30T02:34:40;11.63;;;4.53;;
52041;SDS011;38052;45.944;13.624;2024-01-30T02:37:06;9.75;;;4.35;;
52041;SDS011;38052;45.944;13.624;2024-01-30T02:39:32;11.63;;;5.80;;
52041;SDS011;38052;45.944;13.624;2024-01-30T02:41:59;11.60;;;5.45;;
52041;SDS011;38052;45.944;13.624;2024-01-30T02:44:25;12.30;;;4.78;;
52041;SDS011;38052;45.944;13.624;2024-01-30T02:46:52;9.05;;;4.72;;
52041;SDS011;38052;45.944;13.624;2024-01-30T02:49:19;8.70;;;4.75;;
52041;SDS011;38052;45.944;13.624;2024-01-30T02:51:46;6.43;;;3.45;;
52041;SDS011;38052;45.944;13.624;2024-01-30T02:54:12;8.98;;;3.92;;
52041;SDS011;38052;45.944;13.624;2024-01-30T02:56:38;5.75;;;3.10;;
52041;SDS011;38052;45.944;13.624;2024-01-30T02:59:05;7.90;;;3.63;;
52041;SDS011;38052;45.944;13.624;2024-01-30T03:01:31;5.30;;;3.45;;
52041;SDS011;38052;45.944;13.624;2024-01-30T03:03:58;8.80;;;3.67;;
52041;SDS011;38052;45.944;13.624;2024-01-30T03:06:24;5.22;;;3.05;;
52041;SDS011;38052;45.944;13.624;2024-01-30T03:08:51;6.18;;;3.90;;
52041;SDS011;38052;45.944;13.624;2024-01-30T03:11:17;7.25;;;3.60;;
52041;SDS011;38052;45.944;13.624;2024-01-30T03:13:44;8.32;;;4.47;;
52041;SDS011;38052;45.944;13.624;2024-01-30T03:16:11;6.55;;;3.78;;
52041;SDS011;38052;45.944;13.624;2024-01-30T03:18:38;6.68;;;3.83;;
52041;SDS011;38052;45.944;13.624;2024-01-30T03:21:04;8.13;;;3.85;;
52041;SDS011;38052;45.944;13.624;2024-01-30T03:23:31;8.48;;;4.65;;
52041;SDS011;38052;45.944;13.624;2024-01-30T03:25:57;9.60;;;4.45;;
52041;SDS011;38052;45.944;13.624;2024-01-30T03:28:23;8.43;;;3.70;;
52041;SDS011;38052;45.944;13.624;2024-01-30T03:30:50;15.02;;;5.68;;
52041;SDS011;38052;45.944;13.624;2024-01-30T03:33:17;12.77;;;6.18;;
52041;SDS011;38052;45.944;13.624;2024-01-30T03:35:44;13.13;;;5.60;;
52041;SDS011;38052;45.944;13.624;2024-01-30T03:38:10;8.73;;;4.68;;
52041;SDS011;38052;45.944;13.624;2024-01-30T03:40:38;11.05;;;4.95;;
52041;SDS011;38052;45.944;13.624;2024-01-30T03:43:04;9.45;;;4.25;;
52041;SDS011;38052;45.944;13.624;2024-01-30T03:45:31;8.82;;;4.28;;
52041;SDS011;38052;45.944;13.624;2024-01-30T03:47:57;7.75;;;4.30;;
52041;SDS011;38052;45.944;13.624;2024-01-30T03:50:23;9.60;;;4.28;;
52041;SDS011;38052;45.944;13.624;2024-01-30T03:52:51;6.90;;;4.00;;
52041;SDS011;38052;45.944;13.624;2024-01-30T03:55:17;6.85;;;3.47;;
52041;SDS011;38052;45.944;13.624;2024-01-30T03:57:44;7.38;;;4.07;;
52041;SDS011;38052;45.944;13.624;2024-01-30T04:00:10;6.95;;;3.20;;
52041;SDS011;38052;45.944;13.624;2024-01-30T04:02:37;8.55;;;3.60;;
52041;SDS011;38052;45.944;13.624;2024-01-30T04:05:03;6.85;;;3.97;;
52041;SDS011;38052;45.944;13.624;2024-01-30T04:07:30;7.63;;;3.60;;
52041;SDS011;38052;45.944;13.624;2024-01-30T04:09:56;10.30;;;3.75;;
52041;SDS011;38052;45.944;13.624;2024-01-30T04:12:23;5.85;;;3.67;;
52041;SDS011;38052;45.944;13.624;2024-01-30T04:14:49;9.05;;;3.20;;
52041;SDS011;38052;45.944;13.624;2024-01-30T04:17:16;5.68;;;3.40;;
52041;SDS011;38052;45.944;13.624;2024-01-30T04:19:42;6.57;;;3.35;;
52041;SDS011;38052;45.944;13.624;2024-01-30T04:22:09;5.93;;;2.78;;
52041;SDS011;38052;45.944;13.624;2024-01-30T04:24:35;5.50;;;2.63;;
52041;SDS011;38052;45.944;13.624;2024-01-30T04:27:01;8.07;;;3.15;;
52041;SDS011;38052;45.944;13.624;2024-01-30T04:29:29;8.50;;;3.95;;
52041;SDS011;38052;45.944;13.624;2024-01-30T04:31:55;5.88;;;3.17;;
52041;SDS011;38052;45.944;13.624;2024-01-30T04:34:22;8.73;;;3.63;;
52041;SDS011;38052;45.944;13.624;2024-01-30T04:36:49;8.30;;;3.67;;
52041;SDS011;38052;45.944;13.624;2024-01-30T04:39:16;6.03;;;3.17;;
52041;SDS011;38052;45.944;13.624;2024-01-30T04:41:43;6.32;;;3.45;;
52041;SDS011;38052;45.944;13.624;2024-01-30T04:44:09;7.82;;;3.20;;
52041;SDS011;38052;45.944;13.624;2024-01-30T04:46:36;7.15;;;3.17;;
52041;SDS011;38052;45.944;13.624;2024-01-30T04:49:03;6.57;;;3.53;;
52041;SDS011;38052;45.944;13.624;2024-01-30T04:51:29;6.70;;;3.17;;
52041;SDS011;38052;45.944;13.624;2024-01-30T04:53:56;9.38;;;3.60;;
52041;SDS011;38052;45.944;13.624;2024-01-30T04:56:22;6.03;;;3.03;;
52041;SDS011;38052;45.944;13.624;2024-01-30T04:58:49;7.65;;;3.97;;
52041;SDS011;38052;45.944;13.624;2024-01-30T05:01:16;9.55;;;3.53;;
52041;SDS011;38052;45.944;13.624;2024-01-30T05:03:42;7.93;;;3.67;;
52041;SDS011;38052;45.944;13.624;2024-01-30T05:06:09;8.52;;;3.15;;
52041;SDS011;38052;45.944;13.624;2024-01-30T05:08:35;5.60;;;3.30;;
52041;SDS011;38052;45.944;13.624;2024-01-30T05:11:02;5.53;;;3.28;;
52041;SDS011;38052;45.944;13.624;2024-01-30T05:13:31;5.22;;;2.53;;
52041;SDS011;38052;45.944;13.624;2024-01-30T05:15:58;6.20;;;2.75;;
52041;SDS011;38052;45.944;13.624;2024-01-30T05:18:25;7.38;;;3.10;;
52041;SDS011;38052;45.944;13.624;2024-01-30T05:20:51;5.60;;;2.80;;
52041;SDS011;38052;45.944;13.624;2024-01-30T05:23:18;6.82;;;3.25;;
52041;SDS011;38052;45.944;13.624;2024-01-30T05:25:44;6.93;;;3.03;;
52041;SDS011;38052;45.944;13.624;2024-01-30T05:28:11;6.45;;;3.35;;
52041;SDS011;38052;45.944;13.624;2024-01-30T05:30:37;12.63;;;3.83;;
52041;SDS011;38052;45.944;13.624;2024-01-30T05:33:04;5.07;;;2.45;;
52041;SDS011;38052;45.944;13.624;2024-01-30T05:35:31;6.13;;;2.88;;
52041;SDS011;38052;45.944;13.624;2024-01-30T05:37:58;5.78;;;2.78;;
52041;SDS011;38052;45.944;13.624;2024-01-30T05:40:24;5.57;;;2.95;;
52041;SDS011;38052;45.944;13.624;2024-01-30T05:42:50;10.20;;;4.40;;
52041;SDS011;38052;45.944;13.624;2024-01-30T05:45:17;8.68;;;3.60;;
52041;SDS011;38052;45.944;13.624;2024-01-30T05:47:43;7.75;;;4.38;;
52041;SDS011;38052;45.944;13.624;2024-01-30T05:50:10;6.80;;;3.13;;
52041;SDS011;38052;45.944;13.624;2024-01-30T05:52:36;4.97;;;2.80;;
52041;SDS011;38052;45.944;13.624;2024-01-30T05:55:03;9.07;;;2.47;;
52041;SDS011;38052;45.944;13.624;2024-01-30T05:57:30;6.85;;;2.95;;
52041;SDS011;38052;45.944;13.624;2024-01-30T05:59:57;6.07;;;3.05;;
52041;SDS011;38052;45.944;13.624;2024-01-30T06:02:24;7.32;;;3.38;;
52041;SDS011;38052;45.944;13.624;2024-01-30T06:04:50;5.93;;;2.97;;
52041;SDS011;38052;45.944;13.624;2024-01-30T06:07:16;8.45;;;3.75;;
52041;SDS011;38052;45.944;13.624;2024-01-30T06:09:43;7.00;;;4.20;;
52041;SDS011;38052;45.944;13.624;2024-01-30T06:12:12;8.73;;;3.05;;
52041;SDS011;38052;45.944;13.624;2024-01-30T06:14:38;9.93;;;3.08;;
52041;SDS011;38052;45.944;13.624;2024-01-30T06:17:04;7.00;;;2.90;;
52041;SDS011;38052;45.944;13.624;2024-01-30T06:19:30;6.95;;;4.43;;
52041;SDS011;38052;45.944;13.624;2024-01-30T06:21:56;8.07;;;3.90;;
52041;SDS011;38052;45.944;13.624;2024-01-30T06:24:23;7.15;;;3.75;;
52041;SDS011;38052;45.944;13.624;2024-01-30T06:26:50;4.53;;;2.35;;
52041;SDS011;38052;45.944;13.624;2024-01-30T06:29:17;5.88;;;3.63;;
52041;SDS011;38052;45.944;13.624;2024-01-30T06:31:43;4.30;;;2.80;;
52041;SDS011;38052;45.944;13.624;2024-01-30T06:34:10;5.88;;;2.70;;
52041;SDS011;38052;45.944;13.624;2024-01-30T06:36:37;6.75;;;3.15;;
52041;SDS011;38052;45.944;13.624;2024-01-30T06:39:03;6.90;;;2.65;;
52041;SDS011;38052;45.944;13.624;2024-01-30T06:41:30;6.15;;;4.15;;
52041;SDS011;38052;45.944;13.624;2024-01-30T06:43:57;9.00;;;3.90;;
52041;SDS011;38052;45.944;13.624;2024-01-30T06:46:23;7.28;;;3.25;;
52041;SDS011;38052;45.944;13.624;2024-01-30T06:48:49;13.45;;;4.13;;
52041;SDS011;38052;45.944;13.624;2024-01-30T06:51:16;8.75;;;3.55;;
52041;SDS011;38052;45.944;13.624;2024-01-30T06:53:42;9.98;;;3.63;;
52041;SDS011;38052;45.944;13.624;2024-01-30T06:56:09;10.63;;;3.85;;
52041;SDS011;38052;45.944;13.624;2024-01-30T06:58:35;7.88;;;3.53;;
52041;SDS011;38052;45.944;13.624;2024-01-30T07:01:03;9.75;;;3.75;;
52041;SDS011;38052;45.944;13.624;2024-01-30T07:03:30;11.82;;;3.83;;
52041;SDS011;38052;45.944;13.624;2024-01-30T07:05:57;15.13;;;4.63;;
52041;SDS011;38052;45.944;13.624;2024-01-30T07:08:23;13.02;;;4.55;;
52041;SDS011;38052;45.944;13.624;2024-01-30T07:10:50;11.88;;;5.15;;
52041;SDS011;38052;45.944;13.624;2024-01-30T07:13:20;8.23;;;4.40;;
52041;SDS011;38052;45.944;13.624;2024-01-30T07:15:47;7.50;;;3.63;;
52041;SDS011;38052;45.944;13.624;2024-01-30T07:18:13;13.95;;;5.28;;
52041;SDS011;38052;45.944;13.624;2024-01-30T07:20:40;9.48;;;4.22;;
52041;SDS011;38052;45.944;13.624;2024-01-30T07:23:11;12.82;;;4.65;;
52041;SDS011;38052;45.944;13.624;2024-01-30T07:25:39;9.05;;;4.38;;
52041;SDS011;38052;45.944;13.624;2024-01-30T07:28:06;7.47;;;4.35;;
52041;SDS011;38052;45.944;13.624;2024-01-30T07:30:34;9.07;;;3.88;;
52041;SDS011;38052;45.944;13.624;2024-01-30T07:33:01;16.05;;;4.22;;
52041;SDS011;38052;45.944;13.624;2024-01-30T07:35:27;7.57;;;3.97;;
52041;SDS011;38052;45.944;13.624;2024-01-30T07:37:54;9.82;;;4.35;;
52041;SDS011;38052;45.944;13.624;2024-01-30T07:40:21;8.27;;;4.70;;
52041;SDS011;38052;45.944;13.624;2024-01-30T07:42:48;7.95;;;3.90;;
52041;SDS011;38052;45.944;13.624;2024-01-30T07:45:15;7.38;;;3.53;;
52041;SDS011;38052;45.944;13.624;2024-01-30T07:47:41;11.18;;;4.30;;
52041;SDS011;38052;45.944;13.624;2024-01-30T07:50:08;5.53;;;2.70;;
52041;SDS011;38052;45.944;13.624;2024-01-30T07:52:35;12.98;;;3.85;;
52041;SDS011;38052;45.944;13.624;2024-01-30T07:55:02;8.40;;;3.50;;
52041;SDS011;38052;45.944;13.624;2024-01-30T07:57:29;8.05;;;4.18;;
52041;SDS011;38052;45.944;13.624;2024-01-30T07:59:55;9.90;;;4.47;;
52041;SDS011;38052;45.944;13.624;2024-01-30T08:02:22;10.07;;;3.63;;
52041;SDS011;38052;45.944;13.624;2024-01-30T08:04:48;9.63;;;4.13;;
52041;SDS011;38052;45.944;13.624;2024-01-30T08:07:14;9.60;;;4.50;;
52041;SDS011;38052;45.944;13.624;2024-01-30T08:09:42;8.48;;;3.42;;
52041;SDS011;38052;45.944;13.624;2024-01-30T08:12:09;7.35;;;3.25;;
52041;SDS011;38052;45.944;13.624;2024-01-30T08:14:35;13.07;;;5.22;;
52041;SDS011;38052;45.944;13.624;2024-01-30T08:17:02;7.93;;;3.47;;
52041;SDS011;38052;45.944;13.624;2024-01-30T08:19:28;8.57;;;3.70;;
52041;SDS011;38052;45.944;13.624;2024-01-30T08:21:54;13.68;;;4.65;;
52041;SDS011;38052;45.944;13.624;2024-01-30T08:24:21;8.00;;;3.58;;
52041;SDS011;38052;45.944;13.624;2024-01-30T08:26:48;11.82;;;4.85;;
52041;SDS011;38052;45.944;13.624;2024-01-30T08:29:15;10.55;;;3.90;;
52041;SDS011;38052;45.944;13.624;2024-01-30T08:31:41;11.23;;;4.72;;
52041;SDS011;38052;45.944;13.624;2024-01-30T08:34:09;7.93;;;4.32;;
52041;SDS011;38052;45.944;13.624;2024-01-30T08:36:36;17.73;;;5.07;;
52041;SDS011;38052;45.944;13.624;2024-01-30T08:39:03;8.07;;;3.85;;
52041;SDS011;38052;45.944;13.624;2024-01-30T08:41:30;10.95;;;3.08;;
52041;SDS011;38052;45.944;13.624;2024-01-30T08:43:57;9.73;;;4.53;;
52041;SDS011;38052;45.944;13.624;2024-01-30T08:46:23;7.32;;;3.70;;
52041;SDS011;38052;45.944;13.624;2024-01-30T08:48:49;9.57;;;4.20;;
52041;SDS011;38052;45.944;13.624;2024-01-30T08:51:16;12.07;;;5.13;;
52041;SDS011;38052;45.944;13.624;2024-01-30T08:53:43;9.43;;;4.30;;
52041;SDS011;38052;45.944;13.624;2024-01-30T08:56:10;10.35;;;4.38;;
52041;SDS011;38052;45.944;13.624;2024-01-30T08:58:36;11.95;;;4.18;;
52041;SDS011;38052;45.944;13.624;2024-01-30T09:01:03;7.53;;;3.40;;
52041;SDS011;38052;45.944;13.624;2024-01-30T09:03:30;15.05;;;5.03;;
52041;SDS011;38052;45.944;13.624;2024-01-30T09:05:57;8.63;;;4.05;;
52041;SDS011;38052;45.944;13.624;2024-01-30T09:08:23;10.95;;;4.72;;
52041;SDS011;38052;45.944;13.624;2024-01-30T09:10:50;9.02;;;4.60;;
52041;SDS011;38052;45.944;13.624;2024-01-30T09:13:17;7.38;;;3.78;;
52041;SDS011;38052;45.944;13.624;2024-01-30T09:15:44;5.43;;;3.15;;
52041;SDS011;38052;45.944;13.624;2024-01-30T09:18:10;8.38;;;4.05;;
52041;SDS011;38052;45.944;13.624;2024-01-30T09:20:36;7.68;;;3.45;;
52041;SDS011;38052;45.944;13.624;2024-01-30T09:23:03;9.68;;;3.67;;
52041;SDS011;38052;45.944;13.624;2024-01-30T09:25:29;7.75;;;3.58;;
52041;SDS011;38052;45.944;13.624;2024-01-30T09:27:56;8.05;;;3.50;;
52041;SDS011;38052;45.944;13.624;2024-01-30T09:30:23;8.52;;;3.65;;
52041;SDS011;38052;45.944;13.624;2024-01-30T09:32:50;8.10;;;4.25;;
52041;SDS011;38052;45.944;13.624;2024-01-30T09:35:16;8.48;;;4.13;;
52041;SDS011;38052;45.944;13.624;2024-01-30T09:37:43;8.05;;;3.88;;
52041;SDS011;38052;45.944;13.624;2024-01-30T09:40:09;10.85;;;4.25;;
52041;SDS011;38052;45.944;13.624;2024-01-30T09:42:36;12.95;;;2.92;;
52041;SDS011;38052;45.944;13.624;2024-01-30T09:45:02;7.32;;;3.17;;
52041;SDS011;38052;45.944;13.624;2024-01-30T09:47:40;6.70;;;3.10;;
52041;SDS011;38052;45.944;13.624;2024-01-30T09:50:10;7.40;;;3.00;;
52041;SDS011;38052;45.944;13.624;2024-01-30T09:52:37;11.45;;;3.15;;
52041;SDS011;38052;45.944;13.624;2024-01-30T09:55:04;9.70;;;3.22;;
52041;SDS011;38052;45.944;13.624;2024-01-30T09:57:30;8.32;;;2.70;;
52041;SDS011;38052;45.944;13.624;2024-01-30T09:59:57;5.43;;;2.42;;
52041;SDS011;38052;45.944;13.624;2024-01-30T10:02:23;5.88;;;2.70;;
52041;SDS011;38052;45.944;13.624;2024-01-30T10:04:50;8.25;;;2.92;;
52041;SDS011;38052;45.944;13.624;2024-01-30T10:07:17;6.38;;;2.55;;
52041;SDS011;38052;45.944;13.624;2024-01-30T10:09:44;10.13;;;2.70;;
52041;SDS011;38052;45.944;13.624;2024-01-30T10:12:10;9.50;;;3.45;;
52041;SDS011;38052;45.944;13.624;2024-01-30T10:14:40;7.70;;;3.58;;
52041;SDS011;38052;45.944;13.624;2024-01-30T10:17:10;8.40;;;4.20;;
52041;SDS011;38052;45.944;13.624;2024-01-30T10:19:36;6.63;;;3.60;;
52041;SDS011;38052;45.944;13.624;2024-01-30T10:22:03;6.10;;;3.22;;
52041;SDS011;38052;45.944;13.624;2024-01-30T10:24:31;8.65;;;3.28;;
52041;SDS011;38052;45.944;13.624;2024-01-30T10:26:57;6.43;;;2.97;;
52041;SDS011;38052;45.944;13.624;2024-01-30T10:29:24;7.88;;;2.78;;
52041;SDS011;38052;45.944;13.624;2024-01-30T10:32:00;6.13;;;3.05;;
52041;SDS011;38052;45.944;13.624;2024-01-30T10:34:27;7.35;;;3.13;;
52041;SDS011;38052;45.944;13.624;2024-01-30T10:39:31;6.57;;;3.33;;
52041;SDS011;38052;45.944;13.624;2024-01-30T10:41:59;6.68;;;2.78;;
52041;SDS011;38052;45.944;13.624;2024-01-30T10:44:30;5.65;;;2.20;;
52041;SDS011;38052;45.944;13.624;2024-01-30T10:47:00;8.18;;;2.97;;
52041;SDS011;38052;45.944;13.624;2024-01-30T10:49:28;5.85;;;2.63;;
52041;SDS011;38052;45.944;13.624;2024-01-30T10:51:54;4.95;;;2.25;;
52041;SDS011;38052;45.944;13.624;2024-01-30T10:54:21;9.27;;;3.15;;
52041;SDS011;38052;45.944;13.624;2024-01-30T10:56:48;5.82;;;2.40;;
52041;SDS011;38052;45.944;13.624;2024-01-30T10:59:16;12.15;;;3.28;;
52041;SDS011;38052;45.944;13.624;2024-01-30T11:01:42;10.90;;;2.33;;
52041;SDS011;38052;45.944;13.624;2024-01-30T11:04:09;5.20;;;2.25;;
52041;SDS011;38052;45.944;13.624;2024-01-30T11:06:40;6.53;;;2.70;;
52041;SDS011;38052;45.944;13.624;2024-01-30T11:09:10;6.30;;;3.25;;
52041;SDS011;38052;45.944;13.624;2024-01-30T11:11:50;7.73;;;2.53;;
52041;SDS011;38052;45.944;13.624;2024-01-30T11:14:16;9.60;;;2.65;;
52041;SDS011;38052;45.944;13.624;2024-01-30T11:16:42;5.78;;;2.63;;
52041;SDS011;38052;45.944;13.624;2024-01-30T11:19:11;7.90;;;3.00;;
52041;SDS011;38052;45.944;13.624;2024-01-30T11:21:44;5.22;;;1.85;;
52041;SDS011;38052;45.944;13.624;2024-01-30T11:24:10;3.25;;;1.67;;
52041;SDS011;38052;45.944;13.624;2024-01-30T11:26:37;4.93;;;2.33;;
52041;SDS011;38052;45.944;13.624;2024-01-30T11:29:06;7.82;;;2.00;;
52041;SDS011;38052;45.944;13.624;2024-01-30T11:31:33;4.65;;;1.65;;
52041;SDS011;38052;45.944;13.624;2024-01-30T11:33:59;6.13;;;2.65;;
52041;SDS011;38052;45.944;13.624;2024-01-30T11:36:26;3.65;;;1.65;;
52041;SDS011;38052;45.944;13.624;2024-01-30T11:38:53;7.95;;;2.53;;
52041;SDS011;38052;45.944;13.624;2024-01-30T11:41:20;6.40;;;2.15;;
52041;SDS011;38052;45.944;13.624;2024-01-30T11:43:52;4.30;;;1.85;;
52041;SDS011;38052;45.944;13.624;2024-01-30T11:46:19;8.52;;;2.03;;
52041;SDS011;38052;45.944;13.624;2024-01-30T11:48:45;3.25;;;1.95;;
52041;SDS011;38052;45.944;13.624;2024-01-30T11:51:12;4.85;;;2.33;;
52041;SDS011;38052;45.944;13.624;2024-01-30T11:53:39;2.85;;;1.58;;
52041;SDS011;38052;45.944;13.624;2024-01-30T11:56:07;3.05;;;2.00;;
52041;SDS011;38052;45.944;13.624;2024-01-30T11:58:34;8.55;;;2.03;;
52041;SDS011;38052;45.944;13.624;2024-01-30T12:01:00;3.88;;;1.70;;
52041;SDS011;38052;45.944;13.624;2024-01-30T12:03:26;3.22;;;1.65;;
52041;SDS011;38052;45.944;13.624;2024-01-30T12:05:56;5.07;;;1.85;;
52041;SDS011;38052;45.944;13.624;2024-01-30T12:08:23;3.77;;;1.67;;
52041;SDS011;38052;45.944;13.624;2024-01-30T12:10:56;4.28;;;1.83;;
52041;SDS011;38052;45.944;13.624;2024-01-30T12:13:23;4.05;;;1.63;;
52041;SDS011;38052;45.944;13.624;2024-01-30T12:15:49;4.05;;;1.90;;
52041;SDS011;38052;45.944;13.624;2024-01-30T12:18:18;4.32;;;2.35;;
52041;SDS011;38052;45.944;13.624;2024-01-30T12:20:45;4.47;;;2.03;;
52041;SDS011;38052;45.944;13.624;2024-01-30T12:23:11;3.50;;;1.73;;
52041;SDS011;38052;45.944;13.624;2024-01-30T12:25:38;4.80;;;2.70;;
52041;SDS011;38052;45.944;13.624;2024-01-30T12:28:05;6.45;;;2.65;;
52041;SDS011;38052;45.944;13.624;2024-01-30T12:30:31;5.47;;;3.30;;
52041;SDS011;38052;45.944;13.624;2024-01-30T12:32:57;3.22;;;2.10;;
52041;SDS011;38052;45.944;13.624;2024-01-30T12:35:23;7.43;;;2.65;;
52041;SDS011;38052;45.944;13.624;2024-01-30T12:37:50;7.32;;;3.40;;
52041;SDS011;38052;45.944;13.624;2024-01-30T12:40:16;4.38;;;2.10;;
52041;SDS011;38052;45.944;13.624;2024-01-30T12:42:43;3.67;;;2.40;;
52041;SDS011;38052;45.944;13.624;2024-01-30T12:45:11;4.68;;;2.30;;
52041;SDS011;38052;45.944;13.624;2024-01-30T12:47:38;5.63;;;2.60;;
52041;SDS011;38052;45.944;13.624;2024-01-30T12:50:04;3.97;;;1.92;;
52041;SDS011;38052;45.944;13.624;2024-01-30T12:52:31;8.40;;;2.72;;
52041;SDS011;38052;45.944;13.624;2024-01-30T12:54:57;5.57;;;2.28;;
52041;SDS011;38052;45.944;13.624;2024-01-30T12:57:23;6.38;;;1.92;;
52041;SDS011;38052;45.944;13.624;2024-01-30T12:59:50;7.32;;;2.28;;
52041;SDS011;38052;45.944;13.624;2024-01-30T13:02:17;3.85;;;1.70;;
52041;SDS011;38052;45.944;13.624;2024-01-30T13:04:43;8.88;;;2.78;;
52041;SDS011;38052;45.944;13.624;2024-01-30T13:07:10;4.57;;;1.95;;
52041;SDS011;38052;45.944;13.624;2024-01-30T13:09:36;9.80;;;1.98;;
52041;SDS011;38052;45.944;13.624;2024-01-30T13:12:03;6.00;;;2.42;;
52041;SDS011;38052;45.944;13.624;2024-01-30T13:14:29;7.13;;;2.33;;
52041;SDS011;38052;45.944;13.624;2024-01-30T13:16:56;3.33;;;1.70;;
52041;SDS011;38052;45.944;13.624;2024-01-30T13:19:22;3.42;;;2.10;;
52041;SDS011;38052;45.944;13.624;2024-01-30T13:21:49;5.30;;;2.40;;
52041;SDS011;38052;45.944;13.624;2024-01-30T13:24:15;5.68;;;2.03;;
52041;SDS011;38052;45.944;13.624;2024-01-30T13:26:42;4.53;;;2.38;;
52041;SDS011;38052;45.944;13.624;2024-01-30T13:29:09;5.88;;;2.58;;
52041;SDS011;38052;45.944;13.624;2024-01-30T13:31:35;3.92;;;2.42;;
52041;SDS011;38052;45.944;13.624;2024-01-30T13:34:01;8.18;;;2.67;;
52041;SDS011;38052;45.944;13.624;2024-01-30T13:36:28;4.28;;;2.67;;
52041;SDS011;38052;45.944;13.624;2024-01-30T13:38:54;6.07;;;3.25;;
52041;SDS011;38052;45.944;13.624;2024-01-30T13:41:20;6.43;;;3.50;;
52041;SDS011;38052;45.944;13.624;2024-01-30T13:43:47;5.72;;;3.20;;
52041;SDS011;38052;45.944;13.624;2024-01-30T13:46:14;6.65;;;3.70;;
52041;SDS011;38052;45.944;13.624;2024-01-30T13:48:41;10.40;;;3.40;;
52041;SDS011;38052;45.944;13.624;2024-01-30T13:51:07;5.18;;;2.60;;
52041;SDS011;38052;45.944;13.624;2024-01-30T13:53:34;5.50;;;2.97;;
52041;SDS011;38052;45.944;13.624;2024-01-30T13:56:00;4.70;;;3.05;;
52041;SDS011;38052;45.944;13.624;2024-01-30T13:58:27;5.10;;;2.53;;
52041;SDS011;38052;45.944;13.624;2024-01-30T14:00:53;5.43;;;3.15;;
52041;SDS011;38052;45.944;13.624;2024-01-30T14:03:19;6.93;;;3.08;;
52041;SDS011;38052;45.944;13.624;2024-01-30T14:05:46;8.88;;;3.42;;
52041;SDS011;38052;45.944;13.624;2024-01-30T14:08:13;5.68;;;3.13;;
52041;SDS011;38052;45.944;13.624;2024-01-30T14:10:39;5.15;;;3.38;;
52041;SDS011;38052;45.944;13.624;2024-01-30T14:13:06;6.45;;;3.60;;
52041;SDS011;38052;45.944;13.624;2024-01-30T14:15:33;6.57;;;3.30;;
52041;SDS011;38052;45.944;13.624;2024-01-30T14:17:59;8.48;;;3.85;;
52041;SDS011;38052;45.944;13.624;2024-01-30T14:20:26;5.40;;;3.35;;
52041;SDS011;38052;45.944;13.624;2024-01-30T14:22:52;8.60;;;4.25;;
52041;SDS011;38052;45.944;13.624;2024-01-30T14:25:20;8.27;;;4.43;;
52041;SDS011;38052;45.944;13.624;2024-01-30T14:27:46;11.43;;;4.40;;
52041;SDS011;38052;45.944;13.624;2024-01-30T14:30:13;7.03;;;3.72;;
52041;SDS011;38052;45.944;13.624;2024-01-30T14:32:39;10.45;;;4.75;;